Jack Robertson — WDE5993 — position and weather

sailwx.info

Track history (hours):
 
Tides and Currents Weather Stations Pressure Air Temp Water Temp Dewpoint Dewpoint Depression Visibility Wind Speed Wind Dir Waves Ship Positions

Oceanographic research ship Jack Robertson (United States)

Owner: University of Washington Applied Physics Laboratory, Seattle, WA. More information available from US FCC via Universal Licensing System and Coast Guard Vessel Documentation Center.

Last reported at 2019-Dec-10 23:00 UTC. Time now 2019-Dec-11 10:47 UTC.
Position N 47°43' W 122°25'.

; draft 1.7 m.

Type: Other ship. MMSI: 367374350.

Date/timePositionNaut miles runAvg speedWind from/ knotsBaromVisibWave heightAir tempDewpointWater temp
2019-Dec-10 23:00N 47°43' W 122°25'0 0.1
2019-Dec-10 22:00N 47°43' W 122°25'1 0.5
2019-Dec-10 20:30N 47°44' W 122°24'0 0.1
2019-Dec-10 18:30N 47°44' W 122°24'0 0.1
2019-Dec-10 16:30N 47°44' W 122°25'3 1.5
2019-Dec-10 14:31N 47°41' W 122°24'0 0.0
2019-Dec-10 13:00N 47°41' W 122°24'0 0.0
2019-Dec-10 12:30N 47°41' W 122°24'0 0.0
2019-Dec-10 11:30N 47°41' W 122°24'0 0.0
2019-Dec-10 10:30N 47°41' W 122°24'0 0.0
2019-Dec-10 09:30N 47°41' W 122°24'0 0.0
2019-Dec-10 09:00N 47°41' W 122°24'0 0.0
2019-Dec-10 06:30N 47°41' W 122°24'0 0.0
2019-Dec-10 04:31N 47°41' W 122°24'0 0.0
2019-Dec-10 03:31N 47°41' W 122°24'0 0.0
2019-Dec-10 03:00N 47°41' W 122°24'0 0.0
2019-Dec-10 02:00N 47°41' W 122°24'0 0.0
2019-Dec-09 22:01N 47°41' W 122°24'3 3.0
2019-Dec-09 21:00N 47°39' W 122°21'1 2.6
2019-Dec-09 20:30N 47°39' W 122°19'0 0.1
2019-Dec-09 20:00N 47°39' W 122°19'  
Track history (hours):
 
Tides and Currents Weather Stations Pressure Air Temp Water Temp Dewpoint Dewpoint Depression Visibility Wind Speed Wind Dir Waves Ship Positions

Oceanographic research ship Jack Robertson (United States)

Owner: University of Washington Applied Physics Laboratory, Seattle, WA. More information available from US FCC via Universal Licensing System and Coast Guard Vessel Documentation Center.

Last reported at 2019-Dec-10 23:00 UTC. Time now 2019-Dec-11 10:47 UTC.
Position N 47°43' W 122°25'.

; draft 1.7 m.

Type: Other ship. MMSI: 367374350.

Date/timePositionNaut miles runAvg speedWind from/ knotsBaromVisibWave heightAir tempDewpointWater temp
2019-Dec-10 23:00N 47°43' W 122°25'0 0.1
2019-Dec-10 22:00N 47°43' W 122°25'1 0.5
2019-Dec-10 20:30N 47°44' W 122°24'0 0.1
2019-Dec-10 18:30N 47°44' W 122°24'0 0.1
2019-Dec-10 16:30N 47°44' W 122°25'3 1.5
2019-Dec-10 14:31N 47°41' W 122°24'0 0.0
2019-Dec-10 13:00N 47°41' W 122°24'0 0.0
2019-Dec-10 12:30N 47°41' W 122°24'0 0.0
2019-Dec-10 11:30N 47°41' W 122°24'0 0.0
2019-Dec-10 10:30N 47°41' W 122°24'0 0.0
2019-Dec-10 09:30N 47°41' W 122°24'0 0.0
2019-Dec-10 09:00N 47°41' W 122°24'0 0.0
2019-Dec-10 06:30N 47°41' W 122°24'0 0.0
2019-Dec-10 04:31N 47°41' W 122°24'0 0.0
2019-Dec-10 03:31N 47°41' W 122°24'0 0.0
2019-Dec-10 03:00N 47°41' W 122°24'0 0.0
2019-Dec-10 02:00N 47°41' W 122°24'0 0.0
2019-Dec-09 22:01N 47°41' W 122°24'3 3.0
2019-Dec-09 21:00N 47°39' W 122°21'1 2.6
2019-Dec-09 20:30N 47°39' W 122°19'0 0.1
2019-Dec-09 20:00N 47°39' W 122°19'  

Dump ship's entire track history